Long Lake, Indiana
Current Conditions -  °F | °C
As of 3:55 AM on Friday 24 Oct 2014 (Local Time) from KANQ Reporting Station
Overcast Overcast  
Wind Chill: 37°   Ceiling: 8000
Heat Index: 37°   Visibility: 5mi
Dew Point: 37°   Wind: 0mph
Humidity: 100%   Direction: NA
Pressure: 30.08"   Gusts: NA
Location:  41.7284°N, 84.9169°W
Report Text: KANQ 240755Z AUTO 00000KT 5SM OVC080 03/03 A3008 RMK
Loading
Personal Weather Stations






























Interactive Weather Map New forecast layout! Learn more

10-Day Weather Forecast

Advertisements
Track Severe Weather on mobile